Time;durP1;ratioP1;P1;durP2;ratioP2;P2;SDS_P1;SDS_P2;PMS_P1;PMS_P2;Temp;Humidity;BMP_temperature;BMP_pressure;BME280_temperature;BME280_humidity;BME280_pressure;Samples;Min_cycle;Max_cycle;Signal;HPM_P1;HPM_P2
2024/02/02 00:01:35;;;;;;;14.75;2.35;;;5.20;99.90;;;;;;5044673;28;20177;-62
2024/02/02 00:04:04;;;;;;;40.90;4.80;;;5.20;99.90;;;;;;5036429;28;20509;-62
2024/02/02 00:06:30;;;;;;;28.40;4.43;;;5.20;99.90;;;;;;5036973;28;20402;-62
2024/02/02 00:08:56;;;;;;;26.35;5.00;;;5.30;99.90;;;;;;5036381;28;20129;-62
2024/02/02 00:11:22;;;;;;;36.17;4.40;;;5.20;99.90;;;;;;5036373;28;20547;-63
2024/02/02 00:13:49;;;;;;;32.60;4.88;;;5.30;99.90;;;;;;5038079;28;20398;-62
2024/02/02 00:16:15;;;;;;;27.77;3.60;;;5.20;99.90;;;;;;5033075;28;20083;-62
2024/02/02 00:18:40;;;;;;;21.70;3.17;;;5.20;99.90;;;;;;5038648;28;20076;-62
2024/02/02 00:21:06;;;;;;;34.22;4.65;;;5.30;99.90;;;;;;5034617;28;20113;-62
2024/02/02 00:23:32;;;;;;;36.58;4.43;;;5.30;99.90;;;;;;5037523;28;20596;-62
2024/02/02 00:25:58;;;;;;;31.63;5.20;;;5.40;99.90;;;;;;5036317;28;20041;-62
2024/02/02 00:28:23;;;;;;;48.95;4.95;;;5.40;99.90;;;;;;5034818;28;20047;-62
2024/02/02 00:30:49;;;;;;;42.65;5.68;;;5.40;99.90;;;;;;5038097;28;20036;-62
2024/02/02 00:33:15;;;;;;;24.38;4.18;;;5.40;99.90;;;;;;5039470;28;20060;-62
2024/02/02 00:35:41;;;;;;;40.20;4.80;;;5.40;99.90;;;;;;5042364;28;20075;-62
2024/02/02 00:38:07;;;;;;;23.83;3.33;;;5.50;99.90;;;;;;5037778;28;20587;-62
2024/02/02 00:40:32;;;;;;;27.50;3.35;;;5.50;99.90;;;;;;5041757;28;20046;-62
2024/02/02 00:42:58;;;;;;;26.20;4.32;;;5.50;99.90;;;;;;5035599;28;20399;-62
2024/02/02 00:45:24;;;;;;;38.30;5.03;;;5.50;99.90;;;;;;5027317;28;20124;-62
2024/02/02 00:47:50;;;;;;;27.98;3.55;;;5.50;99.90;;;;;;5042783;28;20076;-62
2024/02/02 00:50:16;;;;;;;36.03;4.78;;;5.50;99.90;;;;;;5036793;28;20037;-63
2024/02/02 00:52:42;;;;;;;31.58;4.78;;;5.50;99.90;;;;;;5039459;28;20029;-62
2024/02/02 00:55:08;;;;;;;26.20;3.25;;;5.50;99.90;;;;;;5036715;28;20049;-62
2024/02/02 00:57:33;;;;;;;29.38;5.38;;;5.50;99.90;;;;;;5041903;28;20450;-62
2024/02/02 00:59:59;;;;;;;19.38;3.63;;;5.50;99.90;;;;;;5036712;28;20076;-62
2024/02/02 01:02:25;;;;;;;30.60;3.95;;;5.60;99.90;;;;;;5033058;28;20045;-62
2024/02/02 01:04:51;;;;;;;26.25;3.58;;;5.60;99.90;;;;;;5043853;28;20178;-62
2024/02/02 01:07:17;;;;;;;35.90;4.43;;;5.60;99.90;;;;;;5023165;28;20084;-62
2024/02/02 01:09:44;;;;;;;27.45;4.18;;;5.60;99.90;;;;;;5034188;28;20055;-62
2024/02/02 01:12:10;;;;;;;25.33;3.83;;;5.60;99.90;;;;;;5042848;28;20045;-62
2024/02/02 01:14:38;;;;;;;32.30;4.97;;;5.70;99.90;;;;;;5027605;28;20479;-62
2024/02/02 01:17:03;;;;;;;27.10;3.60;;;5.70;99.90;;;;;;5035384;28;20041;-63
2024/02/02 01:19:29;;;;;;;19.92;4.05;;;5.70;99.90;;;;;;5022065;28;20511;-63
2024/02/02 01:21:55;;;;;;;24.75;4.05;;;5.60;99.90;;;;;;5024592;28;20049;-62
2024/02/02 01:24:21;;;;;;;38.10;4.80;;;5.70;99.90;;;;;;5029303;28;20138;-63
2024/02/02 01:26:46;;;;;;;29.15;4.25;;;5.70;99.90;;;;;;5024460;28;20159;-62
2024/02/02 01:29:12;;;;;;;38.88;6.18;;;5.70;99.90;;;;;;5021856;28;20073;-63
2024/02/02 01:31:38;;;;;;;16.02;3.25;;;5.80;99.90;;;;;;5031235;28;20365;-62
2024/02/02 01:34:04;;;;;;;33.55;4.72;;;5.80;99.90;;;;;;5023131;28;20403;-63
2024/02/02 01:36:30;;;;;;;39.53;5.82;;;5.80;99.90;;;;;;5036019;28;20149;-63
2024/02/02 01:38:55;;;;;;;26.08;4.00;;;5.80;99.90;;;;;;5024876;28;20057;-62
2024/02/02 01:41:21;;;;;;;34.83;6.00;;;5.80;99.90;;;;;;5022589;28;20045;-62
2024/02/02 01:43:47;;;;;;;35.15;5.68;;;5.80;99.90;;;;;;5022652;28;20041;-62
2024/02/02 01:46:13;;;;;;;17.95;3.78;;;5.80;99.90;;;;;;5030828;28;20053;-63
2024/02/02 01:48:38;;;;;;;22.70;3.50;;;5.90;99.90;;;;;;5043524;28;20045;-62
2024/02/02 01:51:05;;;;;;;14.98;3.05;;;5.90;99.90;;;;;;5041704;28;20040;-62
2024/02/02 01:53:31;;;;;;;23.10;4.60;;;5.90;99.90;;;;;;5037902;28;20041;-63
2024/02/02 01:55:58;;;;;;;35.92;5.13;;;5.80;99.90;;;;;;5023525;28;20119;-62
2024/02/02 01:58:24;;;;;;;27.92;5.35;;;5.80;99.90;;;;;;5037569;28;20049;-63
2024/02/02 02:00:50;;;;;;;23.33;3.92;;;5.90;99.90;;;;;;5039498;28;20048;-63
2024/02/02 02:03:17;;;;;;;16.33;2.92;;;5.90;99.90;;;;;;5044570;28;20049;-62
2024/02/02 02:05:43;;;;;;;29.45;5.53;;;5.90;99.90;;;;;;5039290;28;20086;-62
2024/02/02 02:08:09;;;;;;;21.58;3.55;;;5.90;99.90;;;;;;5039790;28;20105;-62
2024/02/02 02:10:35;;;;;;;40.03;4.78;;;5.90;99.90;;;;;;5035636;28;20068;-62
2024/02/02 02:13:02;;;;;;;31.90;5.72;;;5.90;99.90;;;;;;5021823;28;20041;-62
2024/02/02 02:15:28;;;;;;;26.23;4.35;;;5.90;99.90;;;;;;5022169;28;20053;-63
2024/02/02 02:17:54;;;;;;;27.65;4.40;;;5.90;99.90;;;;;;5023339;28;20034;-62
2024/02/02 02:20:22;;;;;;;32.10;5.32;;;5.90;99.90;;;;;;5030294;28;20398;-62
2024/02/02 02:22:48;;;;;;;22.55;4.78;;;5.90;99.90;;;;;;5026038;28;20045;-62
2024/02/02 02:25:14;;;;;;;20.90;3.83;;;5.90;99.90;;;;;;5021731;28;20136;-62
2024/02/02 02:27:40;;;;;;;30.77;4.80;;;5.90;99.90;;;;;;5023885;28;20564;-62
2024/02/02 02:30:08;;;;;;;12.43;2.63;;;5.90;99.90;;;;;;5033264;28;20045;-62
2024/02/02 02:32:34;;;;;;;25.27;4.63;;;5.90;99.90;;;;;;5024081;28;20665;-62
2024/02/02 02:35:00;;;;;;;34.10;4.82;;;5.90;99.90;;;;;;5022934;28;20063;-63
2024/02/02 02:37:26;;;;;;;24.35;5.55;;;5.90;99.90;;;;;;5019878;28;20129;-62
2024/02/02 02:39:52;;;;;;;38.13;5.38;;;6.00;99.90;;;;;;5023045;28;20048;-62
2024/02/02 02:42:18;;;;;;;35.50;5.20;;;6.00;99.90;;;;;;5028771;28;20088;-62
2024/02/02 02:44:43;;;;;;;40.85;6.10;;;5.90;99.90;;;;;;5021709;28;20037;-62
2024/02/02 02:47:11;;;;;;;30.85;5.75;;;5.90;99.90;;;;;;5025634;28;20041;-62
2024/02/02 02:49:37;;;;;;;29.88;5.28;;;6.00;99.90;;;;;;5026748;28;20055;-62
2024/02/02 02:52:02;;;;;;;35.53;5.15;;;6.00;99.90;;;;;;5022900;28;20053;-62
2024/02/02 02:54:28;;;;;;;32.60;5.32;;;5.90;99.90;;;;;;5021363;28;20049;-62
2024/02/02 02:56:54;;;;;;;21.30;4.97;;;5.90;99.90;;;;;;5022622;28;20045;-62
2024/02/02 02:59:20;;;;;;;34.88;5.78;;;5.90;99.90;;;;;;5035973;28;20526;-62
2024/02/02 03:01:46;;;;;;;33.28;5.38;;;6.00;99.90;;;;;;5038226;28;20489;-62
2024/02/02 03:04:11;;;;;;;17.85;4.78;;;6.00;99.90;;;;;;5021646;28;20045;-62
2024/02/02 03:06:37;;;;;;;33.33;5.55;;;6.00;99.90;;;;;;5022231;28;20048;-62
2024/02/02 03:09:04;;;;;;;27.70;5.68;;;6.00;99.90;;;;;;5029085;28;20037;-62
2024/02/02 03:11:30;;;;;;;30.27;6.32;;;6.00;99.90;;;;;;5031565;28;20061;-62
2024/02/02 03:13:57;;;;;;;32.75;6.22;;;6.00;99.90;;;;;;5024949;28;20056;-62
2024/02/02 03:16:22;;;;;;;25.17;5.00;;;6.00;99.90;;;;;;5019763;28;20114;-62
2024/02/02 03:18:48;;;;;;;35.78;6.32;;;6.00;99.90;;;;;;5023158;28;20323;-62
2024/02/02 03:21:14;;;;;;;25.60;6.18;;;6.00;99.90;;;;;;5020961;28;20047;-62
2024/02/02 03:23:39;;;;;;;21.50;5.05;;;6.00;99.90;;;;;;5022612;28;20063;-62
2024/02/02 03:26:06;;;;;;;18.92;4.50;;;6.00;99.90;;;;;;5021889;28;20507;-62
2024/02/02 03:28:33;;;;;;;27.42;6.18;;;6.00;99.90;;;;;;5021011;28;20077;-62
2024/02/02 03:30:59;;;;;;;30.40;6.13;;;6.00;99.90;;;;;;5027891;28;20041;-63
2024/02/02 03:33:25;;;;;;;21.80;6.18;;;6.00;99.90;;;;;;5026760;28;20045;-62
2024/02/02 03:35:51;;;;;;;28.88;6.43;;;6.00;99.90;;;;;;5022716;28;20103;-62
2024/02/02 03:38:16;;;;;;;36.75;6.75;;;6.00;99.90;;;;;;5002484;28;20053;-62
2024/02/02 03:40:42;;;;;;;29.98;5.55;;;6.00;99.90;;;;;;5034117;28;20060;-63
2024/02/02 03:43:10;;;;;;;32.05;7.65;;;6.00;99.90;;;;;;5038407;28;20041;-62
2024/02/02 03:45:36;;;;;;;32.97;6.70;;;6.10;99.90;;;;;;5021339;28;20115;-62
2024/02/02 03:48:02;;;;;;;31.98;6.90;;;6.10;99.90;;;;;;5020813;28;20289;-62
2024/02/02 03:50:27;;;;;;;22.80;5.70;;;6.10;99.90;;;;;;5025850;28;20041;-63
2024/02/02 03:52:55;;;;;;;17.70;4.10;;;6.10;99.90;;;;;;5005424;28;20056;-63
2024/02/02 03:55:20;;;;;;;28.73;6.03;;;6.10;99.90;;;;;;5026483;28;20049;-62
2024/02/02 03:57:46;;;;;;;24.30;4.85;;;6.10;99.90;;;;;;5039455;28;20510;-62
2024/02/02 04:00:12;;;;;;;11.00;3.13;;;6.10;99.90;;;;;;5037929;28;20120;-62
2024/02/02 04:02:38;;;;;;;14.88;2.60;;;6.10;99.90;;;;;;5027828;28;20115;-62
2024/02/02 04:05:05;;;;;;;21.02;5.38;;;6.00;99.90;;;;;;5022118;28;20128;-62
2024/02/02 04:07:31;;;;;;;23.63;4.65;;;6.10;99.90;;;;;;5027594;28;20491;-62
2024/02/02 04:09:57;;;;;;;32.10;5.82;;;6.00;99.90;;;;;;5041953;28;20520;-63
2024/02/02 04:12:23;;;;;;;30.02;6.25;;;6.00;99.90;;;;;;5026966;28;20095;-63
2024/02/02 04:14:48;;;;;;;16.10;4.68;;;6.00;99.90;;;;;;5024587;28;20049;-63
2024/02/02 04:17:14;;;;;;;14.75;3.75;;;6.00;99.90;;;;;;5024767;28;20064;-63
2024/02/02 04:19:40;;;;;;;28.40;5.78;;;6.00;99.90;;;;;;5035682;28;20446;-62
2024/02/02 04:22:06;;;;;;;31.23;6.05;;;6.00;99.90;;;;;;5025267;28;20128;-62
2024/02/02 04:24:34;;;;;;;34.13;6.38;;;6.10;99.90;;;;;;5024098;28;20037;-62
2024/02/02 04:27:00;;;;;;;17.95;4.22;;;6.10;99.90;;;;;;5025759;28;20129;-63
2024/02/02 04:29:26;;;;;;;11.35;2.88;;;6.00;99.90;;;;;;5031176;28;20120;-62
2024/02/02 04:31:52;;;;;;;28.00;6.13;;;6.10;99.90;;;;;;5028207;28;20083;-62
2024/02/02 04:34:17;;;;;;;27.20;6.53;;;6.00;99.90;;;;;;5024045;28;20053;-62
2024/02/02 04:36:43;;;;;;;26.70;5.30;;;6.00;99.90;;;;;;5025022;28;20037;-63
2024/02/02 04:39:10;;;;;;;25.17;5.68;;;6.00;99.90;;;;;;5025263;28;20045;-62
2024/02/02 04:41:36;;;;;;;24.88;5.50;;;6.10;99.90;;;;;;5054238;28;20519;-63
2024/02/02 04:44:02;;;;;;;23.58;5.20;;;6.10;99.90;;;;;;5035492;28;20053;-62
2024/02/02 04:46:28;;;;;;;38.58;6.32;;;6.10;99.90;;;;;;5023197;28;20628;-62
2024/02/02 04:48:53;;;;;;;34.70;6.50;;;6.10;99.90;;;;;;5024133;28;20044;-62
2024/02/02 04:51:19;;;;;;;22.90;5.38;;;6.10;99.90;;;;;;5030511;28;20037;-62
2024/02/02 04:53:45;;;;;;;34.60;6.15;;;6.10;99.90;;;;;;5035889;28;20068;-63
2024/02/02 04:56:11;;;;;;;21.55;4.65;;;6.10;99.90;;;;;;5022882;28;20490;-63
2024/02/02 04:58:36;;;;;;;34.72;5.88;;;6.00;99.90;;;;;;5026790;28;20045;-62
2024/02/02 05:01:03;;;;;;;36.58;7.05;;;6.10;99.90;;;;;;5035324;28;20049;-63
2024/02/02 05:03:30;;;;;;;33.25;5.60;;;6.10;99.90;;;;;;5026451;28;20049;-62
2024/02/02 05:05:58;;;;;;;41.65;5.78;;;6.10;99.90;;;;;;5025554;28;20077;-63
2024/02/02 05:08:23;;;;;;;37.80;6.22;;;6.10;99.90;;;;;;5023135;28;20488;-63
2024/02/02 05:10:49;;;;;;;33.42;5.40;;;6.10;99.90;;;;;;5038282;28;20657;-63
2024/02/02 05:13:15;;;;;;;33.88;7.38;;;6.10;99.90;;;;;;5026632;28;20046;-63
2024/02/02 05:15:41;;;;;;;32.63;5.15;;;6.10;99.90;;;;;;5037128;28;20098;-62
2024/02/02 05:18:06;;;;;;;39.60;7.53;;;6.10;99.90;;;;;;5024252;28;20494;-63
2024/02/02 05:20:32;;;;;;;21.15;4.07;;;6.10;99.90;;;;;;5023229;28;20033;-62
2024/02/02 05:22:58;;;;;;;27.95;5.93;;;6.10;99.90;;;;;;5026960;28;20501;-63
2024/02/02 05:25:24;;;;;;;33.15;6.25;;;6.10;99.90;;;;;;5022056;28;20068;-62
2024/02/02 05:27:50;;;;;;;25.60;5.05;;;6.10;99.90;;;;;;5024621;28;20570;-63
2024/02/02 05:30:16;;;;;;;27.98;5.35;;;6.10;99.90;;;;;;5022817;28;20045;-62
2024/02/02 05:32:42;;;;;;;29.63;3.88;;;6.20;99.90;;;;;;5026347;28;20049;-62
2024/02/02 05:35:07;;;;;;;28.77;6.55;;;6.10;99.90;;;;;;5021973;28;20061;-62
2024/02/02 05:37:33;;;;;;;34.88;5.65;;;6.20;99.90;;;;;;5023413;28;20060;-62
2024/02/02 05:39:59;;;;;;;25.85;4.57;;;6.10;99.90;;;;;;5022637;28;20037;-62
2024/02/02 05:42:25;;;;;;;27.50;4.57;;;6.20;99.90;;;;;;5021400;28;20060;-62
2024/02/02 05:44:51;;;;;;;19.45;3.85;;;6.10;99.90;;;;;;5035934;28;20103;-62
2024/02/02 05:47:16;;;;;;;15.65;3.50;;;6.10;99.90;;;;;;5023102;28;20041;-62
2024/02/02 05:49:42;;;;;;;30.50;5.35;;;6.20;99.90;;;;;;5022534;28;20384;-63
2024/02/02 05:52:09;;;;;;;31.60;4.93;;;6.20;99.90;;;;;;5005077;28;20049;-63
2024/02/02 05:54:35;;;;;;;20.75;3.65;;;6.20;99.90;;;;;;5030851;28;20392;-63
2024/02/02 05:57:01;;;;;;;32.72;5.97;;;6.20;99.90;;;;;;5033711;28;20115;-62
2024/02/02 05:59:27;;;;;;;20.73;3.83;;;6.20;99.90;;;;;;5022306;28;20056;-63
2024/02/02 06:01:53;;;;;;;35.42;5.45;;;6.20;99.90;;;;;;5033931;28;20037;-63
2024/02/02 06:04:18;;;;;;;20.45;4.25;;;6.20;99.90;;;;;;5021476;28;20045;-62
2024/02/02 06:06:44;;;;;;;40.88;5.82;;;6.20;99.90;;;;;;5024988;28;20133;-62
2024/02/02 06:09:11;;;;;;;26.25;5.25;;;6.20;99.90;;;;;;5023950;28;20507;-62
2024/02/02 06:11:37;;;;;;;31.50;5.07;;;6.20;99.90;;;;;;5038932;28;20073;-63
2024/02/02 06:14:03;;;;;;;33.15;5.05;;;6.20;99.90;;;;;;5042823;28;20049;-62
2024/02/02 06:16:35;;;;;;;32.67;4.68;;;6.20;99.90;;;;;;5042586;28;20045;-63
2024/02/02 06:19:01;;;;;;;25.52;3.95;;;6.20;99.90;;;;;;5042939;28;20041;-62
2024/02/02 06:21:26;;;;;;;13.30;2.63;;;6.20;99.90;;;;;;5040012;28;20076;-63
2024/02/02 06:23:52;;;;;;;17.67;3.40;;;6.20;99.90;;;;;;5030015;28;20477;-63
2024/02/02 06:26:18;;;;;;;21.05;3.65;;;6.20;99.90;;;;;;5028524;28;20526;-62
2024/02/02 06:28:45;;;;;;;35.00;5.90;;;6.20;99.90;;;;;;5022900;28;20117;-62
2024/02/02 06:31:11;;;;;;;27.95;3.20;;;6.30;99.90;;;;;;5026497;28;20088;-62
2024/02/02 06:33:36;;;;;;;20.95;3.30;;;6.30;99.90;;;;;;5030757;28;20085;-63
2024/02/02 06:36:03;;;;;;;30.40;4.25;;;6.30;99.90;;;;;;5042623;28;20083;-63
2024/02/02 06:38:28;;;;;;;8.75;1.88;;;6.30;99.90;;;;;;5035731;28;20083;-62
2024/02/02 06:40:54;;;;;;;18.75;4.22;;;6.30;99.90;;;;;;5033921;28;20514;-63
2024/02/02 06:43:20;;;;;;;21.50;3.20;;;6.30;99.90;;;;;;5026477;28;20045;-63
2024/02/02 06:45:46;;;;;;;23.63;3.10;;;6.30;99.90;;;;;;5027649;28;20579;-62
2024/02/02 06:48:13;;;;;;;27.38;4.13;;;6.30;99.90;;;;;;5023755;28;20095;-62
2024/02/02 06:50:38;;;;;;;29.85;3.90;;;6.30;99.90;;;;;;5030148;28;20499;-63
2024/02/02 06:53:05;;;;;;;26.67;3.22;;;6.30;99.90;;;;;;5029592;28;20041;-63
2024/02/02 06:55:30;;;;;;;29.17;4.57;;;6.30;99.90;;;;;;5022608;28;20435;-62
2024/02/02 06:57:56;;;;;;;20.73;3.15;;;6.30;99.90;;;;;;5023813;28;20106;-62
2024/02/02 07:00:22;;;;;;;28.73;3.95;;;6.30;99.90;;;;;;5022818;28;20426;-63
2024/02/02 07:02:48;;;;;;;14.02;2.53;;;6.30;99.90;;;;;;5029986;28;20048;-63
2024/02/02 07:05:14;;;;;;;23.55;3.83;;;6.30;99.90;;;;;;5032743;28;20053;-63
2024/02/02 07:07:40;;;;;;;32.90;4.80;;;6.40;99.90;;;;;;5029289;28;20041;-62
2024/02/02 07:10:15;;;;;;;25.38;3.22;;;6.30;99.90;;;;;;5040450;28;20055;-62
2024/02/02 07:12:47;;;;;;;24.83;3.85;;;6.40;99.90;;;;;;5023405;28;20049;-63
2024/02/02 07:15:24;;;;;;;44.30;6.78;;;6.40;99.90;;;;;;5021932;28;20045;-62
2024/02/02 07:17:50;;;;;;;26.27;4.38;;;6.40;99.90;;;;;;5020792;28;20105;-62
2024/02/02 07:20:22;;;;;;;18.20;2.30;;;6.30;99.90;;;;;;5015095;28;20440;-63
2024/02/02 07:22:56;;;;;;;21.63;3.58;;;6.30;99.90;;;;;;5028105;28;20058;-62
2024/02/02 07:25:23;;;;;;;27.08;4.00;;;6.30;99.90;;;;;;5025339;28;20088;-63
2024/02/02 07:27:55;;;;;;;27.13;3.80;;;6.40;99.90;;;;;;5023637;28;20045;-63
2024/02/02 07:30:42;;;;;;;28.95;3.45;;;6.30;99.90;;;;;;5021217;28;20126;-62
2024/02/02 07:33:37;;;;;;;32.15;4.45;;;6.40;99.90;;;;;;5024116;28;20136;-62
2024/02/02 07:36:25;;;;;;;23.35;3.67;;;6.40;99.90;;;;;;5022262;28;20075;-63
2024/02/02 07:38:56;;;;;;;25.10;2.97;;;6.40;99.90;;;;;;5028285;28;20060;-63
2024/02/02 07:41:26;;;;;;;23.30;3.80;;;6.40;99.90;;;;;;5027174;28;20056;-63
2024/02/02 07:43:54;;;;;;;44.30;5.68;;;6.40;99.90;;;;;;5029522;28;20637;-62
2024/02/02 07:46:20;;;;;;;34.30;5.07;;;6.30;99.90;;;;;;5044845;28;20139;-63
2024/02/02 07:48:47;;;;;;;41.67;4.97;;;6.30;99.90;;;;;;5040849;28;20064;-63
2024/02/02 07:51:15;;;;;;;21.88;3.45;;;6.30;99.90;;;;;;5035849;28;20299;-63
2024/02/02 07:53:44;;;;;;;33.08;3.92;;;6.30;99.90;;;;;;5043989;28;20487;-63
2024/02/02 07:56:10;;;;;;;30.05;4.35;;;6.30;99.90;;;;;;5043802;28;20044;-63
2024/02/02 07:58:36;;;;;;;34.20;4.72;;;6.30;99.90;;;;;;5044984;28;20052;-63
2024/02/02 08:01:01;;;;;;;21.48;3.83;;;6.30;99.90;;;;;;5037788;28;20051;-62
2024/02/02 08:03:27;;;;;;;29.70;4.55;;;6.30;99.90;;;;;;5034547;28;20045;-62
2024/02/02 08:05:53;;;;;;;33.95;3.83;;;6.30;99.90;;;;;;5031401;28;20053;-62
2024/02/02 08:08:19;;;;;;;44.72;5.03;;;6.40;99.90;;;;;;5032748;28;20060;-62
2024/02/02 08:10:46;;;;;;;26.27;3.75;;;6.40;99.90;;;;;;5039255;28;20037;-62
2024/02/02 08:13:13;;;;;;;27.48;3.65;;;6.40;99.90;;;;;;5026274;28;20493;-63
2024/02/02 08:15:39;;;;;;;28.67;4.15;;;6.40;99.90;;;;;;5041883;28;20049;-63
2024/02/02 08:18:06;;;;;;;30.83;3.50;;;6.40;99.90;;;;;;5039018;28;20088;-62
2024/02/02 08:20:32;;;;;;;26.98;3.30;;;6.50;99.90;;;;;;5037781;28;20116;-64
2024/02/02 08:22:58;;;;;;;30.67;5.15;;;6.50;99.90;;;;;;5038362;28;20044;-62
2024/02/02 08:25:24;;;;;;;24.35;3.72;;;6.50;99.90;;;;;;5045588;28;20090;-62
2024/02/02 08:27:50;;;;;;;40.17;4.45;;;6.50;99.90;;;;;;5043769;28;20060;-62
2024/02/02 08:30:16;;;;;;;24.95;3.22;;;6.50;99.90;;;;;;5041459;28;20563;-63
2024/02/02 08:32:44;;;;;;;25.15;4.25;;;6.60;99.90;;;;;;5039870;28;20099;-62
2024/02/02 08:35:11;;;;;;;36.30;5.22;;;6.60;99.90;;;;;;5038482;28;20056;-63
2024/02/02 08:37:38;;;;;;;35.15;3.92;;;6.60;99.90;;;;;;5034105;28;20058;-62
2024/02/02 08:40:18;;;;;;;27.23;4.45;;;6.60;99.90;;;;;;5039915;28;20045;-62
2024/02/02 08:42:44;;;;;;;27.88;4.30;;;6.70;99.90;;;;;;5032623;28;20049;-62
2024/02/02 08:45:35;;;;;;;35.70;5.28;;;6.70;99.90;;;;;;5041346;28;20045;-63
2024/02/02 08:48:00;;;;;;;29.55;4.35;;;6.70;99.90;;;;;;5032762;28;20044;-62
2024/02/02 08:50:26;;;;;;;36.25;4.68;;;6.70;99.90;;;;;;5035428;28;20463;-63
2024/02/02 08:52:58;;;;;;;26.33;4.03;;;6.80;99.90;;;;;;5028335;28;20124;-62
2024/02/02 08:55:51;;;;;;;37.78;5.50;;;6.80;99.90;;;;;;5037258;28;20079;-63
2024/02/02 08:58:27;;;;;;;33.35;4.55;;;6.80;99.90;;;;;;5032648;28;20435;-62
2024/02/02 09:00:54;;;;;;;30.23;4.65;;;6.80;99.90;;;;;;5034847;28;20099;-62
2024/02/02 09:03:27;;;;;;;34.10;5.43;;;6.90;99.90;;;;;;5037620;28;20046;-63
2024/02/02 09:05:57;;;;;;;17.92;2.47;;;6.90;99.90;;;;;;5034850;28;20073;-63
2024/02/02 09:08:33;;;;;;;32.23;4.30;;;6.90;99.90;;;;;;5036664;28;20054;-62
2024/02/02 09:10:59;;;;;;;23.38;2.60;;;7.00;99.90;;;;;;5040523;28;20038;-62
2024/02/02 09:13:33;;;;;;;22.00;3.17;;;7.00;99.90;;;;;;5021627;28;20121;-63
2024/02/02 09:15:59;;;;;;;37.10;5.43;;;7.00;99.90;;;;;;5024569;28;20508;-63
2024/02/02 09:18:34;;;;;;;24.90;3.25;;;7.00;99.90;;;;;;5021311;28;20053;-63
2024/02/02 09:21:05;;;;;;;21.70;3.88;;;7.00;99.90;;;;;;5036565;28;20052;-63
2024/02/02 09:23:32;;;;;;;30.25;4.57;;;7.00;99.90;;;;;;5039854;28;20499;-63
2024/02/02 09:25:59;;;;;;;27.67;4.78;;;7.10;99.90;;;;;;5031181;28;20052;-62
2024/02/02 09:28:25;;;;;;;23.23;4.97;;;7.00;99.90;;;;;;5034373;28;20049;-62
2024/02/02 09:30:57;;;;;;;28.25;4.32;;;7.10;99.90;;;;;;5023067;28;20072;-62
2024/02/02 09:33:50;;;;;;;24.63;4.00;;;7.10;99.90;;;;;;5029649;28;20099;-63
2024/02/02 09:36:17;;;;;;;6.43;1.92;;;7.20;99.90;;;;;;5023333;28;20057;-63
2024/02/02 09:39:04;;;;;;;32.00;4.93;;;7.20;99.90;;;;;;5037594;28;20055;-63
2024/02/02 09:41:50;;;;;;;33.63;5.03;;;7.20;99.90;;;;;;5024623;28;20045;-62
2024/02/02 09:44:23;;;;;;;21.40;3.30;;;7.30;99.90;;;;;;5022131;28;20100;-63
2024/02/02 09:46:58;;;;;;;37.67;4.55;;;7.20;99.90;;;;;;5037174;28;20199;-62
2024/02/02 09:49:32;;;;;;;29.90;5.80;;;7.30;99.90;;;;;;5033109;28;20052;-62
2024/02/02 09:52:23;;;;;;;15.93;2.47;;;7.30;99.90;;;;;;5041201;28;20052;-62
2024/02/02 09:55:22;;;;;;;3.88;1.42;;;7.30;99.90;;;;;;5033744;28;20096;-63
2024/02/02 09:58:02;;;;;;;18.20;3.53;;;7.30;99.90;;;;;;5039399;28;20454;-62
2024/02/02 10:00:47;;;;;;;13.05;2.85;;;7.40;99.90;;;;;;5041436;28;20052;-63
2024/02/02 10:03:22;;;;;;;21.10;3.20;;;7.40;99.90;;;;;;5034819;28;20055;-63
2024/02/02 10:06:09;;;;;;;36.08;4.45;;;7.50;99.90;;;;;;5037858;28;20091;-62
2024/02/02 10:09:12;;;;;;;35.90;3.63;;;7.60;99.90;;;;;;5031226;28;20526;-62
2024/02/02 10:12:14;;;;;;;3.08;1.10;;;7.60;99.90;;;;;;5024209;28;20517;-63
2024/02/02 10:14:48;;;;;;;7.60;2.13;;;7.70;99.90;;;;;;5012444;28;20081;-63
2024/02/02 10:17:44;;;;;;;9.68;1.98;;;7.80;99.90;;;;;;5030007;28;20048;-62
2024/02/02 10:20:40;;;;;;;7.00;1.92;;;7.80;99.90;;;;;;5023371;28;20500;-62
2024/02/02 10:23:42;;;;;;;33.58;4.18;;;7.90;99.90;;;;;;5035848;28;20060;-63
2024/02/02 10:26:30;;;;;;;12.98;2.65;;;7.90;99.90;;;;;;5034943;28;20838;-63
2024/02/02 10:28:56;;;;;;;21.52;4.00;;;7.90;99.90;;;;;;5027950;28;20049;-62
2024/02/02 10:31:32;;;;;;;13.50;2.28;;;7.90;99.90;;;;;;5023696;28;20519;-62
2024/02/02 10:34:17;;;;;;;14.35;2.22;;;8.00;99.90;;;;;;5022853;28;20049;-63
2024/02/02 10:37:05;;;;;;;23.33;4.30;;;8.00;99.90;;;;;;5031281;28;20049;-62
2024/02/02 10:39:45;;;;;;;10.55;1.90;;;8.10;99.90;;;;;;5036792;28;20076;-63
2024/02/02 10:42:27;;;;;;;6.28;1.83;;;8.10;99.90;;;;;;5022267;28;20051;-62
2024/02/02 10:45:15;;;;;;;14.95;2.92;;;8.10;99.90;;;;;;5022919;28;20558;-62
2024/02/02 10:48:03;;;;;;;17.70;2.67;;;8.20;99.90;;;;;;5033902;28;20118;-63
2024/02/02 10:50:49;;;;;;;22.20;3.30;;;8.20;99.90;;;;;;5033376;28;20071;-62
2024/02/02 10:53:47;;;;;;;18.13;3.13;;;8.20;99.90;;;;;;5028347;28;20049;-63
2024/02/02 10:56:27;;;;;;;21.52;4.35;;;8.30;99.90;;;;;;5035591;28;20059;-63
2024/02/02 10:59:22;;;;;;;13.20;2.92;;;8.30;99.90;;;;;;5030089;28;20045;-62
2024/02/02 11:01:53;;;;;;;17.08;2.92;;;8.30;99.90;;;;;;5030924;28;20324;-62
2024/02/02 11:04:25;;;;;;;26.17;4.38;;;8.40;99.90;;;;;;5022560;28;20589;-62
2024/02/02 11:07:34;;;;;;;18.25;2.70;;;8.40;99.90;;;;;;5021684;28;20107;-63
2024/02/02 11:10:05;;;;;;;16.70;3.10;;;8.50;99.90;;;;;;5016002;28;20122;-63
2024/02/02 11:12:43;;;;;;;5.63;1.85;;;8.50;99.90;;;;;;5026240;28;20260;-62
2024/02/02 11:15:36;;;;;;;10.80;2.92;;;8.60;99.90;;;;;;5022551;28;20087;-63
2024/02/02 11:18:20;;;;;;;21.83;2.88;;;8.60;99.90;;;;;;5021664;28;20117;-63
2024/02/02 11:20:52;;;;;;;5.57;1.48;;;8.60;99.90;;;;;;5026300;28;20057;-63
2024/02/02 11:23:33;;;;;;;6.00;1.00;;;8.70;99.90;;;;;;5037861;28;20099;-64
2024/02/02 11:26:28;;;;;;;14.90;3.20;;;8.70;99.90;;;;;;5039210;28;20108;-62
2024/02/02 11:29:14;;;;;;;25.30;4.78;;;8.70;99.90;;;;;;5037920;28;20114;-63
2024/02/02 11:31:56;;;;;;;11.88;2.72;;;8.70;99.90;;;;;;5037074;28;20370;-63
2024/02/02 11:34:37;;;;;;;4.13;1.70;;;8.80;99.90;;;;;;5039173;28;20071;-62
2024/02/02 11:37:13;;;;;;;17.33;3.25;;;8.70;99.90;;;;;;5029422;28;20045;-63
2024/02/02 11:39:53;;;;;;;25.85;4.65;;;8.80;99.90;;;;;;5028680;28;20103;-63
2024/02/02 11:42:21;;;;;;;5.32;1.98;;;8.80;99.90;;;;;;5036117;28;20072;-63
2024/02/02 11:44:48;;;;;;;13.20;2.20;;;8.80;99.90;;;;;;5030137;28;20562;-63
2024/02/02 11:47:19;;;;;;;3.78;1.88;;;8.90;99.90;;;;;;5032092;28;20040;-63
2024/02/02 11:49:52;;;;;;;19.92;3.83;;;8.90;99.90;;;;;;5037364;28;20049;-63
2024/02/02 11:52:36;;;;;;;6.75;2.42;;;9.00;99.90;;;;;;5039084;28;20049;-63
2024/02/02 11:55:18;;;;;;;6.50;2.00;;;9.00;99.90;;;;;;5033784;28;21101;-63
2024/02/02 11:57:49;;;;;;;8.45;1.70;;;9.10;99.90;;;;;;5028004;28;20053;-63
2024/02/02 12:00:47;;;;;;;21.83;3.92;;;9.20;99.90;;;;;;5025766;28;20049;-63
2024/02/02 12:03:35;;;;;;;5.55;1.55;;;9.20;99.90;;;;;;5017461;28;20057;-63
2024/02/02 12:06:16;;;;;;;5.97;1.38;;;9.20;99.90;;;;;;5026612;28;20391;-63
2024/02/02 12:09:17;;;;;;;5.63;1.45;;;9.30;99.90;;;;;;5024647;28;20325;-63
2024/02/02 12:11:48;;;;;;;8.73;2.05;;;9.20;99.90;;;;;;5035812;28;20495;-62
2024/02/02 12:14:26;;;;;;;16.40;2.67;;;9.30;99.90;;;;;;5019478;28;20045;-62
2024/02/02 12:16:51;;;;;;;17.02;2.95;;;9.40;99.90;;;;;;5037852;28;20496;-63
2024/02/02 12:19:17;;;;;;;6.88;1.95;;;9.40;99.90;;;;;;5032268;28;20048;-62
2024/02/02 12:21:47;;;;;;;13.88;4.22;;;9.40;99.90;;;;;;5039686;28;20051;-63
2024/02/02 12:24:14;;;;;;;13.95;3.28;;;9.40;99.90;;;;;;5029846;28;20049;-63
2024/02/02 12:26:41;;;;;;;6.65;1.95;;;9.40;99.90;;;;;;5035238;28;20084;-63
2024/02/02 12:29:07;;;;;;;4.88;1.65;;;9.30;99.90;;;;;;5036481;28;20046;-63
2024/02/02 12:31:33;;;;;;;17.98;1.75;;;9.30;99.90;;;;;;5042133;28;20040;-63
2024/02/02 12:33:59;;;;;;;5.05;1.77;;;9.30;99.90;;;;;;5042499;28;20437;-63
2024/02/02 12:36:26;;;;;;;17.45;3.53;;;9.20;99.90;;;;;;5034507;28;20137;-62
2024/02/02 12:38:52;;;;;;;5.55;1.92;;;9.30;99.90;;;;;;5037734;28;20649;-63
2024/02/02 12:41:18;;;;;;;23.00;2.40;;;9.30;99.90;;;;;;5031885;28;20537;-63
2024/02/02 12:43:47;;;;;;;7.82;2.67;;;9.30;99.90;;;;;;5039085;28;20044;-63
2024/02/02 12:46:13;;;;;;;12.57;2.03;;;9.30;99.90;;;;;;5033954;28;20046;-64
2024/02/02 12:48:40;;;;;;;5.53;1.38;;;9.30;99.90;;;;;;5039692;28;20052;-62
2024/02/02 12:51:06;;;;;;;11.45;2.30;;;9.20;99.90;;;;;;5035841;28;20053;-62
2024/02/02 12:53:32;;;;;;;6.95;2.30;;;9.20;99.90;;;;;;5030935;28;20037;-63
2024/02/02 12:55:58;;;;;;;9.15;1.98;;;9.20;99.90;;;;;;5038413;28;20059;-63
2024/02/02 12:58:24;;;;;;;8.70;2.20;;;9.20;99.90;;;;;;5037016;28;20057;-62
2024/02/02 13:00:50;;;;;;;9.50;2.10;;;9.20;99.90;;;;;;5042068;28;20699;-63
2024/02/02 13:03:17;;;;;;;17.17;2.08;;;9.10;99.90;;;;;;5036460;28;20537;-63